Time;durP1;ratioP1;P1;durP2;ratioP2;P2;SDS_P1;SDS_P2;PMS_P1;PMS_P2;Temp;Humidity;BMP_temperature;BMP_pressure;BME280_temperature;BME280_humidity;BME280_pressure;Samples;Min_cycle;Max_cycle;Signal;HPM_P1;HPM_P2
2022/09/18 00:00:09;;;;;;;904.42;842.42;;;;;;;13.65;69.64;100022.44;690011;28;22457;-64
2022/09/18 00:00:33;;;;;;;907.17;845.20;;;;;;;13.64;69.69;100024.34;686233;28;138097;-64
2022/09/18 00:00:54;;;;;;;914.10;851.92;;;;;;;13.63;69.52;100030.81;688556;28;22398;-64
2022/09/18 00:01:17;;;;;;;905.97;844.03;;;;;;;13.63;69.45;100030.81;689654;28;23739;-64
2022/09/18 00:01:39;;;;;;;882.85;821.50;;;;;;;13.62;69.71;100028.31;688508;28;69466;-64
2022/09/18 00:02:01;;;;;;;896.83;835.10;;;;;;;13.62;69.76;100025.59;687635;28;70202;-64
2022/09/18 00:02:22;;;;;;;888.38;826.92;;;;;;;13.58;69.45;100025.19;686643;28;44394;-64
2022/09/18 00:02:44;;;;;;;897.58;835.90;;;;;;;13.60;69.86;100025.81;687539;28;22428;-64
2022/09/18 00:03:05;;;;;;;890.22;828.72;;;;;;;13.58;69.68;100025.19;687598;28;22395;-64
2022/09/18 00:03:28;;;;;;;913.28;851.03;;;;;;;13.60;69.60;100022.28;687500;28;22482;-64
2022/09/18 00:03:50;;;;;;;902.85;840.95;;;;;;;13.57;69.86;100020.81;685756;28;69407;-64
2022/09/18 00:04:12;;;;;;;898.47;836.65;;;;;;;13.59;69.87;100026.88;686808;28;46346;-64
2022/09/18 00:04:34;;;;;;;906.88;844.83;;;;;;;13.59;69.80;100031.44;687481;28;69159;-64
2022/09/18 00:04:56;;;;;;;917.78;855.40;;;;;;;13.59;69.80;100028.75;690112;28;23467;-64
2022/09/18 00:05:17;;;;;;;912.38;850.28;;;;;;;13.59;69.81;100029.59;688212;28;44297;-64
2022/09/18 00:05:38;;;;;;;897.03;835.38;;;;;;;13.59;69.95;100026.88;687488;28;23388;-63
2022/09/18 00:06:05;;;;;;;899.67;837.90;;;;;;;13.61;69.98;100030.19;687410;28;22406;-64
2022/09/18 00:06:28;;;;;;;915.35;853.05;;;;;;;13.61;69.68;100026.66;683436;28;137920;-64
2022/09/18 00:06:50;;;;;;;918.65;856.30;;;;;;;13.61;70.00;100022.06;685017;28;70345;-64
2022/09/18 00:07:14;;;;;;;897.88;835.95;;;;;;;13.64;69.85;100031.66;683287;28;43802;-64
2022/09/18 00:07:35;;;;;;;914.53;852.20;;;;;;;13.63;69.94;100035.41;682224;28;90337;-64
2022/09/18 00:07:59;;;;;;;917.92;855.65;;;;;;;13.64;69.73;100034.38;684335;28;21526;-63
2022/09/18 00:08:20;;;;;;;908.95;846.83;;;;;;;13.64;69.82;100027.06;682068;28;92266;-64
2022/09/18 00:08:42;;;;;;;894.38;832.72;;;;;;;13.65;69.75;100023.31;684429;28;22298;-63
2022/09/18 00:09:07;;;;;;;897.30;835.72;;;;;;;13.65;69.75;100028.72;685147;28;46264;-64
2022/09/18 00:09:28;;;;;;;901.78;839.88;;;;;;;13.66;69.72;100030.38;684199;28;113670;-63
2022/09/18 00:09:49;;;;;;;923.90;861.22;;;;;;;13.67;69.75;100031.22;687284;28;23523;-64
2022/09/18 00:10:10;;;;;;;917.13;854.70;;;;;;;13.67;69.51;100029.34;687380;28;22393;-64
2022/09/18 00:10:32;;;;;;;901.72;839.80;;;;;;;13.67;69.76;100031.22;688237;28;868;-64
2022/09/18 00:10:54;;;;;;;889.80;828.28;;;;;;;13.67;69.95;100026.63;687420;28;21333;-64
2022/09/18 00:11:15;;;;;;;919.95;857.53;;;;;;;13.67;69.69;100032.06;686651;28;46492;-63
2022/09/18 00:11:40;;;;;;;912.65;850.45;;;;;;;13.69;69.74;100031.84;687536;28;21517;-63
2022/09/18 00:12:01;;;;;;;919.55;857.17;;;;;;;13.69;69.82;100029.13;685409;28;137751;-64
2022/09/18 00:12:23;;;;;;;915.20;852.88;;;;;;;13.70;69.94;100030.81;689231;28;45237;-63
2022/09/18 00:12:44;;;;;;;882.55;821.28;;;;;;;13.70;69.61;100037.06;689099;28;45263;-64
2022/09/18 00:13:06;;;;;;;910.70;848.55;;;;;;;13.69;69.79;100027.25;689340;28;22386;-63
2022/09/18 00:13:27;;;;;;;917.17;854.78;;;;;;;13.71;69.67;100029.72;690108;28;22409;-63
2022/09/18 00:13:48;;;;;;;910.42;848.28;;;;;;;13.68;69.77;100025.59;690101;28;23478;-63
2022/09/18 00:14:13;;;;;;;913.97;851.72;;;;;;;13.68;70.01;100028.31;689305;28;46354;-63
2022/09/18 00:14:34;;;;;;;914.10;851.85;;;;;;;13.70;70.17;100031.63;687014;28;115233;-64
2022/09/18 00:14:56;;;;;;;930.88;868.17;;;;;;;13.71;70.35;100029.72;689840;28;21537;-63
2022/09/18 00:15:17;;;;;;;927.58;864.95;;;;;;;13.70;70.43;100037.06;687425;28;21789;-64
2022/09/18 00:15:38;;;;;;;922.83;860.30;;;;;;;13.70;70.36;100031.63;687558;28;21290;-64
2022/09/18 00:15:59;;;;;;;918.78;856.40;;;;;;;13.70;70.26;100030.81;684188;28;21544;-63
2022/09/18 00:16:23;;;;;;;916.72;854.33;;;;;;;13.72;70.25;100036.00;685776;28;1535;-63
2022/09/18 00:16:44;;;;;;;929.50;866.65;;;;;;;13.72;70.17;100033.31;684770;28;92236;-64
2022/09/18 00:17:05;;;;;;;914.55;852.15;;;;;;;13.72;70.23;100025.16;685946;28;23451;-64
2022/09/18 00:17:29;;;;;;;918.67;856.10;;;;;;;13.73;70.44;100032.22;687126;28;23479;-64
2022/09/18 00:17:50;;;;;;;912.30;850.15;;;;;;;13.73;70.41;100034.94;685909;28;90704;-64
2022/09/18 00:18:12;;;;;;;916.95;854.65;;;;;;;13.74;70.18;100032.03;690138;28;21534;-64
2022/09/18 00:18:34;;;;;;;913.67;851.40;;;;;;;13.71;70.27;100027.03;689129;28;46731;-64
2022/09/18 00:18:55;;;;;;;914.85;852.45;;;;;;;13.72;70.58;100028.69;689303;28;44276;-64
2022/09/18 00:19:17;;;;;;;924.30;861.63;;;;;;;13.73;70.66;100029.53;690811;28;864;-64
2022/09/18 00:19:39;;;;;;;911.92;849.70;;;;;;;13.69;70.35;100027.25;689353;28;46301;-64
2022/09/18 00:20:00;;;;;;;914.58;852.35;;;;;;;13.72;70.25;100025.16;689317;28;46462;-64
2022/09/18 00:20:21;;;;;;;932.83;870.03;;;;;;;13.73;70.24;100026.81;690032;28;22355;-64
2022/09/18 00:20:44;;;;;;;927.33;864.67;;;;;;;13.73;70.72;100030.38;689270;28;44192;-64
2022/09/18 00:21:06;;;;;;;913.10;850.97;;;;;;;13.75;70.50;100038.31;689336;28;46325;-62
2022/09/18 00:21:30;;;;;;;909.55;847.60;;;;;;;13.75;70.61;100032.88;686625;28;67224;-64
2022/09/18 00:21:51;;;;;;;907.92;845.88;;;;;;;13.76;70.46;100034.53;686967;28;92285;-64
2022/09/18 00:22:12;;;;;;;923.45;860.92;;;;;;;13.77;70.75;100038.91;690156;28;23458;-64
2022/09/18 00:22:34;;;;;;;918.05;855.65;;;;;;;13.76;70.36;100039.94;690076;28;22477;-64
2022/09/18 00:22:55;;;;;;;914.45;852.20;;;;;;;13.76;70.56;100029.09;689362;28;44394;-64
2022/09/18 00:23:17;;;;;;;921.05;858.63;;;;;;;13.76;70.47;100035.38;690185;28;21597;-64
2022/09/18 00:23:39;;;;;;;927.95;865.22;;;;;;;13.77;70.53;100034.31;689379;28;44375;-64
2022/09/18 00:24:00;;;;;;;924.88;862.28;;;;;;;13.77;70.35;100037.00;689401;28;46392;-64
2022/09/18 00:24:23;;;;;;;929.42;866.67;;;;;;;13.76;70.52;100040.81;690144;28;21475;-64
2022/09/18 00:24:44;;;;;;;934.10;871.08;;;;;;;13.75;70.41;100038.31;688482;28;68160;-64
2022/09/18 00:25:06;;;;;;;938.50;875.33;;;;;;;13.75;70.82;100035.59;689408;28;23422;-64
2022/09/18 00:25:28;;;;;;;919.85;857.30;;;;;;;13.76;70.81;100042.66;688888;28;1849;-64
2022/09/18 00:25:50;;;;;;;923.08;860.53;;;;;;;13.75;70.72;100036.41;686596;28;46319;-64
2022/09/18 00:26:12;;;;;;;911.67;849.50;;;;;;;13.75;70.70;100038.31;687439;28;45225;-64
2022/09/18 00:26:36;;;;;;;931.25;868.35;;;;;;;13.73;70.78;100041.22;685653;28;70244;-64
2022/09/18 00:27:00;;;;;;;926.17;863.20;;;;;;;13.74;70.76;100040.16;683632;28;92265;-64
2022/09/18 00:27:21;;;;;;;915.80;853.28;;;;;;;13.73;70.63;100035.81;685621;28;69407;-64
2022/09/18 00:27:42;;;;;;;927.03;864.47;;;;;;;13.72;70.71;100039.56;688445;28;22397;-64
2022/09/18 00:28:03;;;;;;;914.72;852.58;;;;;;;13.73;70.81;100040.38;690229;28;22418;-64
2022/09/18 00:28:25;;;;;;;916.40;854.05;;;;;;;13.73;70.85;100040.38;689139;28;46267;-64
2022/09/18 00:28:47;;;;;;;938.72;875.55;;;;;;;13.73;71.19;100043.09;687222;28;22375;-64
2022/09/18 00:29:10;;;;;;;934.42;871.47;;;;;;;13.72;70.80;100044.16;684607;28;25080;-64
2022/09/18 00:29:31;;;;;;;919.97;857.47;;;;;;;13.72;71.16;100044.97;684493;28;22522;-64
2022/09/18 00:29:52;;;;;;;902.40;840.42;;;;;;;13.70;71.13;100042.47;683185;28;46292;-64
2022/09/18 00:30:14;;;;;;;910.20;848.13;;;;;;;13.70;71.18;100037.06;684468;28;22407;-64
2022/09/18 00:30:36;;;;;;;909.55;847.53;;;;;;;13.70;71.60;100038.94;686148;28;22211;-64
2022/09/18 00:31:03;;;;;;;918.75;856.30;;;;;;;13.69;71.55;100043.53;689174;28;45159;-64
2022/09/18 00:31:28;;;;;;;898.72;836.90;;;;;;;13.68;71.35;100049.16;686375;28;88749;-64
2022/09/18 00:31:49;;;;;;;913.45;851.00;;;;;;;13.69;71.30;100046.22;685931;28;115093;-64
2022/09/18 00:32:12;;;;;;;924.28;861.63;;;;;;;13.69;71.73;100048.13;687456;28;23498;-64
2022/09/18 00:32:33;;;;;;;913.53;851.15;;;;;;;13.68;71.41;100039.16;684128;28;67210;-64
2022/09/18 00:32:54;;;;;;;915.80;853.50;;;;;;;13.70;71.56;100041.66;686873;28;22391;-64
2022/09/18 00:33:15;;;;;;;916.85;854.53;;;;;;;13.69;71.48;100042.69;686091;28;23452;-63
2022/09/18 00:33:38;;;;;;;900.75;838.95;;;;;;;13.70;71.55;100047.09;684590;28;21541;-63
2022/09/18 00:34:02;;;;;;;910.25;848.08;;;;;;;13.65;71.57;100034.16;682850;28;70976;-63
2022/09/18 00:34:24;;;;;;;912.28;850.25;;;;;;;13.67;71.81;100034.78;680859;28;115951;-62
2022/09/18 00:34:45;;;;;;;922.72;860.33;;;;;;;13.69;71.74;100037.25;684525;28;46279;-63
2022/09/18 00:35:07;;;;;;;925.13;862.65;;;;;;;13.69;71.34;100038.09;687014;28;23603;-63
2022/09/18 00:35:28;;;;;;;928.95;866.17;;;;;;;13.70;71.79;100042.47;686373;28;46263;-62
2022/09/18 00:35:50;;;;;;;920.63;858.13;;;;;;;13.69;71.42;100039.97;684163;28;22260;-63
2022/09/18 00:36:12;;;;;;;913.47;851.20;;;;;;;13.70;71.70;100041.66;680801;29;44421;-64
2022/09/18 00:36:34;;;;;;;918.05;855.63;;;;;;;13.70;71.45;100042.47;680296;29;69451;-64
2022/09/18 00:36:56;;;;;;;908.45;846.28;;;;;;;13.70;71.62;100041.66;680753;29;21527;-63
2022/09/18 00:37:17;;;;;;;911.28;848.83;;;;;;;13.70;71.55;100036.22;681669;29;18808;-62
2022/09/18 00:37:38;;;;;;;895.42;833.70;;;;;;;13.68;71.61;100039.16;682057;28;44377;-63
2022/09/18 00:38:00;;;;;;;890.15;828.63;;;;;;;13.70;71.96;100044.38;682680;28;21214;-65
2022/09/18 00:38:22;;;;;;;898.92;837.13;;;;;;;13.70;71.91;100038.94;681226;29;23508;-63
2022/09/18 00:38:44;;;;;;;903.15;841.17;;;;;;;13.70;71.84;100038.94;677967;29;46291;-64
2022/09/18 00:39:06;;;;;;;907.30;845.25;;;;;;;13.71;71.52;100037.88;678525;29;46592;-63
2022/09/18 00:39:27;;;;;;;903.67;841.67;;;;;;;13.71;71.91;100043.31;678342;29;46331;-64
2022/09/18 00:39:49;;;;;;;891.33;829.67;;;;;;;13.72;71.81;100041.44;679052;29;46313;-64
2022/09/18 00:40:11;;;;;;;912.28;850.05;;;;;;;13.72;71.47;100044.16;683987;28;44361;-64
2022/09/18 00:40:32;;;;;;;904.75;842.08;;;;;;;13.71;71.83;100048.72;683330;28;22021;-63
2022/09/18 00:40:53;;;;;;;910.65;847.97;;;;;;;13.70;71.94;100044.38;686334;28;44402;-63
2022/09/18 00:41:18;;;;;;;906.17;844.33;;;;;;;13.70;71.69;100038.94;687120;28;23412;-63
2022/09/18 00:41:41;;;;;;;910.38;848.17;;;;;;;13.70;71.94;100045.19;683965;28;115784;-64
2022/09/18 00:42:04;;;;;;;905.40;843.45;;;;;;;13.70;71.84;100042.47;684945;28;69340;-63
2022/09/18 00:42:28;;;;;;;909.20;847.15;;;;;;;13.68;71.78;100044.59;686338;28;67508;-63
2022/09/18 00:42:50;;;;;;;918.20;855.80;;;;;;;13.68;72.02;100044.59;687220;28;90830;-63
2022/09/18 00:43:21;;;;;;;909.13;847.03;;;;;;;13.67;72.06;100042.09;685514;28;44364;-63
2022/09/18 00:43:42;;;;;;;914.33;851.97;;;;;;;13.68;71.79;100046.44;680695;28;137364;-63
2022/09/18 00:44:35;;;;;;;907.15;845.10;;;;;;;13.67;72.18;100040.19;686106;28;45213;-63
2022/09/18 00:44:59;;;;;;;916.45;854.08;;;;;;;13.67;72.17;100042.91;680246;28;138321;-63
2022/09/18 00:45:20;;;;;;;909.78;847.55;;;;;;;13.67;72.19;100034.78;684237;28;90688;-63
2022/09/18 00:45:41;;;;;;;901.92;840.03;;;;;;;13.68;72.16;100044.59;686442;28;21516;-63
2022/09/18 00:46:06;;;;;;;905.65;843.65;;;;;;;13.69;71.99;100039.97;686427;28;44372;-64
2022/09/18 00:46:29;;;;;;;898.95;837.08;;;;;;;13.69;72.10;100042.69;681876;28;92053;-64
2022/09/18 00:46:51;;;;;;;905.75;843.70;;;;;;;13.68;72.08;100039.16;679749;28;92259;-62
2022/09/18 00:47:30;;;;;;;914.97;852.28;;;;;;;13.69;72.25;100038.09;683182;28;23415;-64
2022/09/18 00:47:52;;;;;;;923.13;860.72;;;;;;;13.69;72.15;100038.09;680434;28;135998;-64
2022/09/18 00:48:13;;;;;;;908.50;846.50;;;;;;;13.68;72.13;100044.59;683665;28;46316;-64
2022/09/18 00:48:39;;;;;;;904.72;842.75;;;;;;;13.70;72.33;100041.66;684203;28;23441;-64
2022/09/18 00:49:04;;;;;;;926.10;863.53;;;;;;;13.69;72.35;100039.97;682528;28;138167;-64
2022/09/18 00:49:26;;;;;;;928.15;865.42;;;;;;;13.69;72.18;100043.53;683930;28;115975;-64
2022/09/18 00:49:51;;;;;;;907.33;845.28;;;;;;;13.69;72.29;100037.25;688986;28;1358;-64
2022/09/18 00:50:16;;;;;;;909.70;847.58;;;;;;;13.72;72.26;100044.16;683620;28;115892;-64
2022/09/18 00:50:38;;;;;;;905.03;843.08;;;;;;;13.70;72.47;100044.38;683168;28;136372;-62
2022/09/18 00:50:59;;;;;;;902.90;841.03;;;;;;;13.71;72.68;100043.31;687267;28;21353;-62
2022/09/18 00:51:21;;;;;;;909.60;847.53;;;;;;;13.72;72.54;100042.25;687100;28;22401;-64
2022/09/18 00:51:45;;;;;;;901.95;840.15;;;;;;;13.70;72.43;100042.47;686231;28;45070;-62
2022/09/18 00:52:08;;;;;;;902.92;841.00;;;;;;;13.73;72.60;100048.50;685529;28;92156;-63
2022/09/18 00:52:36;;;;;;;899.67;837.88;;;;;;;13.74;72.63;100044.75;688492;28;69337;-63
2022/09/18 00:52:58;;;;;;;888.95;827.47;;;;;;;13.74;72.61;100047.47;686097;28;137382;-63
2022/09/18 00:53:20;;;;;;;908.15;846.08;;;;;;;13.74;72.35;100042.06;689063;28;46371;-63
2022/09/18 00:53:45;;;;;;;896.40;834.72;;;;;;;13.74;72.43;100036.63;688436;28;69468;-64
2022/09/18 00:54:11;;;;;;;899.47;837.78;;;;;;;13.73;72.35;100043.94;686292;28;115459;-64
2022/09/18 00:54:34;;;;;;;891.33;829.92;;;;;;;13.72;72.28;100044.97;686319;28;114959;-64
2022/09/18 00:54:59;;;;;;;891.00;829.60;;;;;;;13.72;71.91;100044.16;687388;28;92604;-64
2022/09/18 00:55:23;;;;;;;900.53;838.65;;;;;;;13.72;71.82;100038.72;683840;28;113573;-62
2022/09/18 00:55:45;;;;;;;913.22;850.97;;;;;;;13.72;72.21;100042.25;685560;28;67284;-62
2022/09/18 00:56:07;;;;;;;928.00;865.28;;;;;;;13.72;72.27;100052.31;683427;28;67488;-65
2022/09/18 00:56:28;;;;;;;918.42;856.08;;;;;;;13.71;71.78;100048.72;685538;28;23493;-63
2022/09/18 00:56:52;;;;;;;911.00;848.85;;;;;;;13.69;71.90;100048.13;688660;28;23494;-63
2022/09/18 00:57:16;;;;;;;917.25;854.88;;;;;;;13.63;71.81;100040.84;685856;28;91684;-62
2022/09/18 00:57:40;;;;;;;921.45;858.90;;;;;;;13.67;72.18;100042.91;684787;28;90989;-63
2022/09/18 00:58:04;;;;;;;913.67;851.47;;;;;;;13.68;72.02;100046.44;681558;28;90723;-64
2022/09/18 00:58:25;;;;;;;925.03;862.47;;;;;;;13.68;71.81;100051.88;683504;28;90944;-62
2022/09/18 00:58:46;;;;;;;933.45;870.55;;;;;;;13.67;72.05;100040.19;686328;28;46364;-63
2022/09/18 00:59:08;;;;;;;927.40;864.72;;;;;;;13.69;72.14;100048.13;687254;28;23955;-63
2022/09/18 00:59:34;;;;;;;931.42;868.42;;;;;;;13.68;71.91;100046.44;686254;28;37618;-63
2022/09/18 00:59:57;;;;;;;897.65;835.88;;;;;;;13.68;72.00;100052.72;686434;28;69304;-63
2022/09/18 01:00:18;;;;;;;909.70;847.63;;;;;;;13.68;71.70;100041.03;688339;28;69419;-63
2022/09/18 01:00:39;;;;;;;908.15;846.13;;;;;;;13.67;72.28;100048.34;689903;28;22382;-63
2022/09/18 01:01:01;;;;;;;906.45;844.55;;;;;;;13.66;71.87;100046.66;686315;28;44817;-63
2022/09/18 01:01:24;;;;;;;920.03;857.70;;;;;;;13.67;71.80;100047.50;687339;28;14840;-63
2022/09/18 01:01:45;;;;;;;909.50;847.38;;;;;;;13.67;72.09;100048.34;685151;28;67525;-64
2022/09/18 01:02:06;;;;;;;894.97;833.38;;;;;;;13.68;71.99;100050.00;656228;28;65677;-63
2022/09/18 01:02:28;;;;;;;905.72;843.80;;;;;;;13.68;72.00;100046.44;683267;28;22403;-63
2022/09/18 01:02:49;;;;;;;916.03;853.70;;;;;;;13.66;72.03;100049.38;682123;28;21528;-63
2022/09/18 01:03:12;;;;;;;919.05;856.60;;;;;;;13.68;72.09;100047.31;683699;28;44183;-63
2022/09/18 01:03:33;;;;;;;912.47;850.10;;;;;;;13.67;71.68;100051.06;680514;29;45033;-63
2022/09/18 01:03:54;;;;;;;901.15;839.30;;;;;;;13.66;72.00;100043.94;682136;28;22432;-64
2022/09/18 01:04:15;;;;;;;912.65;850.38;;;;;;;13.66;71.75;100043.94;684294;28;22422;-64
2022/09/18 01:04:37;;;;;;;911.40;849.20;;;;;;;13.66;71.97;100040.41;681956;28;22259;-63
2022/09/18 01:04:58;;;;;;;918.50;856.08;;;;;;;13.66;72.23;100048.56;683681;28;46336;-65
2022/09/18 01:05:29;;;;;;;910.75;848.63;;;;;;;13.65;71.86;100050.44;684816;28;21576;-62
2022/09/18 01:05:59;;;;;;;912.67;850.40;;;;;;;13.66;71.87;100041.22;683137;28;137718;-64
2022/09/18 01:06:29;;;;;;;908.25;846.15;;;;;;;13.66;71.90;100049.38;683280;28;136092;-62
2022/09/18 01:06:55;;;;;;;908.53;846.47;;;;;;;13.64;72.06;100051.47;685332;28;138708;-63
2022/09/18 01:07:24;;;;;;;922.55;859.85;;;;;;;13.64;71.86;100048.75;683468;28;116632;-62
2022/09/18 01:08:00;;;;;;;914.50;852.33;;;;;;;13.63;71.82;100047.09;683292;28;137685;-63
2022/09/18 01:08:30;;;;;;;912.63;850.38;;;;;;;13.64;71.83;100047.94;682833;28;137059;-63
2022/09/18 01:08:58;;;;;;;924.90;862.25;;;;;;;13.61;71.74;100045.66;679765;28;138339;-64
2022/09/18 01:09:29;;;;;;;918.83;856.38;;;;;;;13.61;71.97;100049.19;680450;28;130543;-63
2022/09/18 01:10:01;;;;;;;912.38;850.10;;;;;;;13.63;71.46;100044.38;677822;29;135887;-63
2022/09/18 01:10:33;;;;;;;934.33;871.38;;;;;;;13.62;72.07;100042.72;677385;29;138294;-63
2022/09/18 01:11:05;;;;;;;923.40;860.78;;;;;;;13.62;71.83;100048.16;678473;29;116755;-63
2022/09/18 01:11:32;;;;;;;921.22;858.75;;;;;;;13.63;71.90;100047.09;679643;28;160663;-64
2022/09/18 01:11:57;;;;;;;920.05;857.58;;;;;;;13.64;71.83;100050.66;682441;28;137690;-63
2022/09/18 01:12:27;;;;;;;920.38;857.95;;;;;;;13.64;71.42;100047.94;683961;28;114918;-63
2022/09/18 01:12:54;;;;;;;922.15;859.72;;;;;;;13.61;71.82;100046.47;684350;28;137762;-63
2022/09/18 01:13:25;;;;;;;933.40;870.50;;;;;;;13.63;71.70;100047.09;685668;28;137973;-64
2022/09/18 01:13:54;;;;;;;929.75;866.97;;;;;;;13.62;71.78;100045.44;683442;28;137937;-64
2022/09/18 01:14:26;;;;;;;926.22;863.72;;;;;;;13.62;71.92;100050.00;679637;28;160781;-64
2022/09/18 01:14:54;;;;;;;922.85;860.35;;;;;;;13.62;71.74;100052.72;683166;28;60147;-63
2022/09/18 01:15:21;;;;;;;927.67;865.00;;;;;;;13.62;71.65;100053.59;682201;28;137716;-64
2022/09/18 01:15:47;;;;;;;918.35;856.00;;;;;;;13.63;71.27;100049.81;680384;28;138948;-63
2022/09/18 01:16:15;;;;;;;917.03;854.72;;;;;;;13.63;71.19;100046.25;680402;28;137897;-63
2022/09/18 01:16:42;;;;;;;929.03;865.97;;;;;;;13.62;71.33;100047.31;677791;28;137712;-64
2022/09/18 01:17:10;;;;;;;916.85;854.25;;;;;;;13.57;71.38;100042.50;681048;28;138062;-62
2022/09/18 01:17:37;;;;;;;917.55;855.10;;;;;;;13.63;70.96;100040.84;683098;28;136149;-63
2022/09/18 01:18:03;;;;;;;920.22;857.78;;;;;;;13.62;70.91;100048.16;682446;28;138759;-63
2022/09/18 01:18:30;;;;;;;927.15;864.42;;;;;;;13.60;70.93;100049.41;679355;28;112753;-63
2022/09/18 01:18:58;;;;;;;927.60;864.92;;;;;;;13.59;70.69;100042.31;677275;29;138039;-63
2022/09/18 01:19:43;;;;;;;934.70;871.80;;;;;;;13.58;70.97;100046.09;677781;29;138542;-63
2022/09/18 01:20:24;;;;;;;914.55;852.33;;;;;;;13.58;71.26;100046.09;677706;29;137427;-64
2022/09/18 01:20:56;;;;;;;927.40;864.88;;;;;;;13.57;70.82;100053.38;683165;28;137735;-63
2022/09/18 01:21:20;;;;;;;918.17;855.92;;;;;;;13.56;70.99;100043.59;683857;28;137755;-63
2022/09/18 01:21:43;;;;;;;923.97;861.55;;;;;;;13.56;70.96;100054.44;683430;28;115269;-63
2022/09/18 01:22:15;;;;;;;921.17;858.83;;;;;;;13.56;70.98;100045.44;684771;28;67594;-63
2022/09/18 01:22:44;;;;;;;925.25;862.65;;;;;;;13.56;71.17;100046.28;683329;28;161298;-63
2022/09/18 01:23:18;;;;;;;922.50;860.03;;;;;;;13.55;71.31;100050.03;683236;28;137474;-63
2022/09/18 01:24:18;;;;;;;936.15;873.10;;;;;;;13.54;71.22;100051.06;682721;28;137732;-63
2022/09/18 01:24:58;;;;;;;923.65;861.05;;;;;;;13.49;70.89;100049.03;682732;28;160701;-64
2022/09/18 01:25:26;;;;;;;938.47;875.35;;;;;;;13.46;70.70;100046.75;681091;28;160468;-63
2022/09/18 01:25:56;;;;;;;933.75;870.85;;;;;;;13.48;71.01;100051.97;682719;28;160798;-63
2022/09/18 01:26:28;;;;;;;930.70;867.90;;;;;;;13.47;71.13;100050.28;682617;28;160479;-63
2022/09/18 01:26:54;;;;;;;937.05;874.03;;;;;;;13.45;70.99;100041.53;682584;28;136001;-63
2022/09/18 01:27:26;;;;;;;918.90;856.22;;;;;;;13.45;70.93;100053.22;682229;28;161022;-64
2022/09/18 01:28:03;;;;;;;932.35;869.55;;;;;;;13.44;71.25;100043.41;685715;28;137410;-63
2022/09/18 01:28:29;;;;;;;930.25;867.47;;;;;;;13.43;71.12;100051.75;683125;28;137758;-63
2022/09/18 01:28:55;;;;;;;906.88;844.90;;;;;;;13.41;71.09;100054.66;680178;28;136862;-63
2022/09/18 01:29:23;;;;;;;925.88;863.28;;;;;;;13.40;71.18;100049.44;680269;28;136561;-64
2022/09/18 01:29:50;;;;;;;942.70;879.47;;;;;;;13.41;70.92;100051.13;680221;28;137779;-64
2022/09/18 01:30:12;;;;;;;934.92;872.00;;;;;;;13.40;71.04;100036.75;675946;29;138035;-64
2022/09/18 01:30:36;;;;;;;915.97;853.55;;;;;;;13.40;71.15;100044.88;681034;29;46269;-64
2022/09/18 01:31:02;;;;;;;925.17;862.50;;;;;;;13.37;71.22;100044.47;681036;28;113561;-64
2022/09/18 01:31:29;;;;;;;947.28;883.90;;;;;;;13.39;71.10;100045.09;680856;28;115206;-63
2022/09/18 01:31:55;;;;;;;927.22;864.47;;;;;;;13.37;71.20;100045.31;679525;28;137768;-64
2022/09/18 01:32:22;;;;;;;931.17;868.40;;;;;;;13.36;71.02;100046.34;682143;28;92275;-64
2022/09/18 01:32:47;;;;;;;926.45;863.72;;;;;;;13.37;71.01;100048.03;680384;28;137799;-64
2022/09/18 01:33:13;;;;;;;939.45;876.40;;;;;;;13.36;71.06;100046.34;681100;28;115279;-64
2022/09/18 01:33:43;;;;;;;933.63;870.75;;;;;;;13.36;71.41;100045.53;683195;28;138382;-64
2022/09/18 01:34:11;;;;;;;918.38;856.00;;;;;;;13.37;71.16;100058.00;680146;28;137919;-63
2022/09/18 01:34:35;;;;;;;927.55;864.92;;;;;;;13.37;71.29;100047.16;680609;28;137830;-63
2022/09/18 01:35:06;;;;;;;938.67;875.75;;;;;;;13.38;71.19;100052.38;682752;28;92063;-63
2022/09/18 01:35:35;;;;;;;938.45;875.40;;;;;;;13.39;71.29;100051.34;682861;28;137549;-62
2022/09/18 01:35:59;;;;;;;947.13;883.78;;;;;;;13.34;71.14;100040.31;680495;28;136144;-65
2022/09/18 01:36:23;;;;;;;933.72;870.85;;;;;;;13.38;71.08;100046.94;679335;29;90676;-62
2022/09/18 01:36:52;;;;;;;927.67;864.95;;;;;;;13.39;71.18;100047.81;675473;29;115098;-64
2022/09/18 01:37:19;;;;;;;926.08;863.17;;;;;;;13.40;71.18;100054.88;671014;29;158117;-63
2022/09/18 01:37:47;;;;;;;917.05;854.63;;;;;;;13.39;70.81;100055.94;670064;29;136265;-64
2022/09/18 01:38:12;;;;;;;917.03;854.75;;;;;;;13.36;70.85;100046.34;673160;29;138368;-64
2022/09/18 01:38:36;;;;;;;933.75;870.95;;;;;;;13.39;70.90;100051.34;677393;29;92434;-64
2022/09/18 01:39:04;;;;;;;930.70;867.95;;;;;;;13.39;70.70;100055.94;680642;28;136415;-64
2022/09/18 01:39:30;;;;;;;932.20;869.35;;;;;;;13.38;70.74;100054.28;685084;28;138089;-64
2022/09/18 01:39:55;;;;;;;917.75;855.28;;;;;;;13.38;70.83;100054.28;682493;28;138182;-63
2022/09/18 01:40:20;;;;;;;935.95;872.83;;;;;;;13.35;71.11;100047.38;680938;28;117758;-62
2022/09/18 01:40:44;;;;;;;950.55;887.10;;;;;;;13.38;70.89;100052.38;680603;28;115035;-63
2022/09/18 01:41:09;;;;;;;933.17;870.42;;;;;;;13.35;71.05;100052.81;681711;28;92067;-63
2022/09/18 01:41:34;;;;;;;919.92;857.58;;;;;;;13.37;70.76;100060.72;683455;28;59016;-62
2022/09/18 01:41:58;;;;;;;925.20;862.60;;;;;;;13.37;71.07;100053.44;678362;28;92309;-63
2022/09/18 01:42:22;;;;;;;933.50;870.53;;;;;;;13.34;70.86;100051.16;682697;28;67165;-63
2022/09/18 01:42:45;;;;;;;923.25;860.70;;;;;;;13.37;70.90;100049.88;678085;29;115381;-64
2022/09/18 01:43:11;;;;;;;933.88;870.97;;;;;;;13.39;71.08;100058.66;677557;29;92530;-63
2022/09/18 01:43:34;;;;;;;931.40;868.53;;;;;;;13.39;71.07;100062.19;675311;29;113590;-62
2022/09/18 01:44:02;;;;;;;947.90;884.47;;;;;;;13.39;70.58;100053.22;676053;29;92384;-62
2022/09/18 01:44:31;;;;;;;937.03;873.85;;;;;;;13.39;70.54;100055.94;677602;29;61274;-63
2022/09/18 01:44:59;;;;;;;949.35;885.85;;;;;;;13.38;70.76;100059.69;678013;28;138233;-63
2022/09/18 01:45:25;;;;;;;933.70;870.80;;;;;;;13.38;70.83;100052.38;678650;28;113497;-63
2022/09/18 01:45:48;;;;;;;928.60;865.85;;;;;;;13.38;70.46;100065.13;678672;28;137741;-62
2022/09/18 01:46:14;;;;;;;922.55;860.08;;;;;;;13.37;70.86;100064.28;676484;29;136756;-63
2022/09/18 01:46:40;;;;;;;928.25;865.47;;;;;;;13.38;70.40;100059.69;677311;29;136483;-63
2022/09/18 01:47:04;;;;;;;940.75;877.25;;;;;;;13.37;70.56;100058.88;677691;29;92274;-63
2022/09/18 01:47:33;;;;;;;927.47;864.70;;;;;;;13.36;70.45;100065.34;672075;29;137815;-63
2022/09/18 01:48:00;;;;;;;919.95;857.55;;;;;;;13.36;70.45;100057.19;674022;29;138103;-63
2022/09/18 01:48:28;;;;;;;929.05;866.35;;;;;;;13.34;70.87;100054.69;680172;29;59320;-64
2022/09/18 01:48:54;;;;;;;926.25;863.58;;;;;;;13.37;70.77;100052.59;678114;28;138033;-64
2022/09/18 01:49:19;;;;;;;924.95;862.30;;;;;;;13.37;70.95;100058.88;680320;28;137948;-64
2022/09/18 01:49:45;;;;;;;921.28;858.78;;;;;;;13.37;70.42;100052.59;680564;28;138108;-64
2022/09/18 01:50:09;;;;;;;950.03;886.58;;;;;;;13.38;70.47;100059.69;680618;28;113567;-64